sensor_id;sensor_type;location;lat;lon;timestamp;temperature;humidity
13589;DHT22;6865;52.552;13.434;2023-05-02T00:00:43;13.80;78.80
13589;DHT22;6865;52.552;13.434;2023-05-02T00:03:11;13.70;79.00
13589;DHT22;6865;52.552;13.434;2023-05-02T00:05:38;13.70;79.10
13589;DHT22;6865;52.552;13.434;2023-05-02T00:08:06;13.60;79.20
13589;DHT22;6865;52.552;13.434;2023-05-02T00:10:33;13.60;79.40
13589;DHT22;6865;52.552;13.434;2023-05-02T00:12:59;13.50;79.50
13589;DHT22;6865;52.552;13.434;2023-05-02T00:15:26;13.50;79.90
13589;DHT22;6865;52.552;13.434;2023-05-02T00:17:52;13.40;80.20
13589;DHT22;6865;52.552;13.434;2023-05-02T00:20:19;13.30;80.30
13589;DHT22;6865;52.552;13.434;2023-05-02T00:22:46;13.30;80.60
13589;DHT22;6865;52.552;13.434;2023-05-02T00:25:12;13.20;80.60
13589;DHT22;6865;52.552;13.434;2023-05-02T00:27:42;13.20;80.60
13589;DHT22;6865;52.552;13.434;2023-05-02T00:30:09;13.10;80.70
13589;DHT22;6865;52.552;13.434;2023-05-02T00:32:36;13.10;80.90
13589;DHT22;6865;52.552;13.434;2023-05-02T00:35:03;13.10;80.80
13589;DHT22;6865;52.552;13.434;2023-05-02T00:37:30;13.00;80.70
13589;DHT22;6865;52.552;13.434;2023-05-02T00:39:57;13.00;80.70
13589;DHT22;6865;52.552;13.434;2023-05-02T00:42:24;13.00;81.00
13589;DHT22;6865;52.552;13.434;2023-05-02T00:44:51;13.00;80.60
13589;DHT22;6865;52.552;13.434;2023-05-02T00:47:17;12.90;80.50
13589;DHT22;6865;52.552;13.434;2023-05-02T00:49:44;12.90;80.30
13589;DHT22;6865;52.552;13.434;2023-05-02T00:52:11;12.90;80.30
13589;DHT22;6865;52.552;13.434;2023-05-02T00:54:37;12.90;80.60
13589;DHT22;6865;52.552;13.434;2023-05-02T00:57:07;12.90;80.60
13589;DHT22;6865;52.552;13.434;2023-05-02T00:59:35;12.90;80.70
13589;DHT22;6865;52.552;13.434;2023-05-02T01:02:29;12.80;80.80
13589;DHT22;6865;52.552;13.434;2023-05-02T01:05:16;12.80;80.90
13589;DHT22;6865;52.552;13.434;2023-05-02T01:08:18;12.80;81.20
13589;DHT22;6865;52.552;13.434;2023-05-02T01:10:48;12.70;81.40
13589;DHT22;6865;52.552;13.434;2023-05-02T01:13:21;12.70;81.60
13589;DHT22;6865;52.552;13.434;2023-05-02T01:15:50;12.70;81.90
13589;DHT22;6865;52.552;13.434;2023-05-02T01:18:23;12.70;82.40
13589;DHT22;6865;52.552;13.434;2023-05-02T01:21:10;12.70;82.70
13589;DHT22;6865;52.552;13.434;2023-05-02T01:23:59;12.70;83.10
13589;DHT22;6865;52.552;13.434;2023-05-02T01:27:00;12.70;83.40
13589;DHT22;6865;52.552;13.434;2023-05-02T01:29:30;12.60;83.70
13589;DHT22;6865;52.552;13.434;2023-05-02T01:31:58;12.60;84.20
13589;DHT22;6865;52.552;13.434;2023-05-02T01:34:27;12.60;84.60
13589;DHT22;6865;52.552;13.434;2023-05-02T01:36:56;12.60;85.00
13589;DHT22;6865;52.552;13.434;2023-05-02T01:39:24;12.60;85.40
13589;DHT22;6865;52.552;13.434;2023-05-02T01:41:54;12.60;85.70
13589;DHT22;6865;52.552;13.434;2023-05-02T01:44:23;12.60;86.00
13589;DHT22;6865;52.552;13.434;2023-05-02T01:46:52;12.60;86.20
13589;DHT22;6865;52.552;13.434;2023-05-02T01:49:22;12.60;86.60
13589;DHT22;6865;52.552;13.434;2023-05-02T01:51:49;12.60;87.00
13589;DHT22;6865;52.552;13.434;2023-05-02T01:54:19;12.50;87.30
13589;DHT22;6865;52.552;13.434;2023-05-02T01:56:47;12.50;87.60
13589;DHT22;6865;52.552;13.434;2023-05-02T01:59:17;12.40;87.90
13589;DHT22;6865;52.552;13.434;2023-05-02T02:01:45;12.50;88.10
13589;DHT22;6865;52.552;13.434;2023-05-02T02:04:14;12.40;88.40
13589;DHT22;6865;52.552;13.434;2023-05-02T02:06:45;12.30;88.80
13589;DHT22;6865;52.552;13.434;2023-05-02T02:09:14;12.30;89.10
13589;DHT22;6865;52.552;13.434;2023-05-02T02:11:51;12.30;89.50
13589;DHT22;6865;52.552;13.434;2023-05-02T02:14:21;12.40;89.50
13589;DHT22;6865;52.552;13.434;2023-05-02T02:16:52;12.40;89.70
13589;DHT22;6865;52.552;13.434;2023-05-02T02:19:21;12.40;89.70
13589;DHT22;6865;52.552;13.434;2023-05-02T02:21:49;12.40;89.80
13589;DHT22;6865;52.552;13.434;2023-05-02T02:24:17;12.40;89.80
13589;DHT22;6865;52.552;13.434;2023-05-02T02:26:46;12.40;90.00
13589;DHT22;6865;52.552;13.434;2023-05-02T02:29:13;12.40;90.10
13589;DHT22;6865;52.552;13.434;2023-05-02T02:31:39;12.30;90.30
13589;DHT22;6865;52.552;13.434;2023-05-02T02:34:06;12.30;90.60
13589;DHT22;6865;52.552;13.434;2023-05-02T02:37:07;12.20;90.70
13589;DHT22;6865;52.552;13.434;2023-05-02T02:42:44;12.20;90.90
13589;DHT22;6865;52.552;13.434;2023-05-02T02:48:07;12.10;91.30
13589;DHT22;6865;52.552;13.434;2023-05-02T02:51:10;12.00;91.30
13589;DHT22;6865;52.552;13.434;2023-05-02T02:54:08;12.10;91.40
13589;DHT22;6865;52.552;13.434;2023-05-02T02:57:00;12.00;91.40
13589;DHT22;6865;52.552;13.434;2023-05-02T02:59:33;11.90;91.70
13589;DHT22;6865;52.552;13.434;2023-05-02T03:02:05;11.80;91.80
13589;DHT22;6865;52.552;13.434;2023-05-02T03:04:36;12.70;92.30
13589;DHT22;6865;52.552;13.434;2023-05-02T03:07:04;11.70;92.30
13589;DHT22;6865;52.552;13.434;2023-05-02T03:09:44;11.60;92.50
13589;DHT22;6865;52.552;13.434;2023-05-02T03:12:12;11.60;92.70
13589;DHT22;6865;52.552;13.434;2023-05-02T03:14:39;11.50;92.90
13589;DHT22;6865;52.552;13.434;2023-05-02T03:17:07;11.50;93.10
13589;DHT22;6865;52.552;13.434;2023-05-02T03:19:34;11.40;93.30
13589;DHT22;6865;52.552;13.434;2023-05-02T03:22:01;11.40;93.40
13589;DHT22;6865;52.552;13.434;2023-05-02T03:24:28;11.40;93.60
13589;DHT22;6865;52.552;13.434;2023-05-02T03:26:55;11.50;93.90
13589;DHT22;6865;52.552;13.434;2023-05-02T03:29:22;11.30;94.00
13589;DHT22;6865;52.552;13.434;2023-05-02T03:31:49;11.20;94.30
13589;DHT22;6865;52.552;13.434;2023-05-02T03:34:16;11.20;94.50
13589;DHT22;6865;52.552;13.434;2023-05-02T03:36:45;11.10;94.70
13589;DHT22;6865;52.552;13.434;2023-05-02T03:39:11;11.00;95.00
13589;DHT22;6865;52.552;13.434;2023-05-02T03:41:38;10.90;95.50
13589;DHT22;6865;52.552;13.434;2023-05-02T03:44:05;10.90;96.00
13589;DHT22;6865;52.552;13.434;2023-05-02T03:46:32;10.80;96.30
13589;DHT22;6865;52.552;13.434;2023-05-02T03:48:59;10.80;96.70
13589;DHT22;6865;52.552;13.434;2023-05-02T03:51:25;10.80;96.90
13589;DHT22;6865;52.552;13.434;2023-05-02T03:53:52;10.70;97.20
13589;DHT22;6865;52.552;13.434;2023-05-02T03:56:19;10.70;97.50
13589;DHT22;6865;52.552;13.434;2023-05-02T03:58:47;10.80;97.70
13589;DHT22;6865;52.552;13.434;2023-05-02T04:01:15;10.90;97.60
13589;DHT22;6865;52.552;13.434;2023-05-02T04:03:42;11.00;97.50
13589;DHT22;6865;52.552;13.434;2023-05-02T04:06:09;11.00;97.40
13589;DHT22;6865;52.552;13.434;2023-05-02T04:08:36;11.00;97.50
13589;DHT22;6865;52.552;13.434;2023-05-02T04:11:03;11.00;97.60
13589;DHT22;6865;52.552;13.434;2023-05-02T04:13:29;11.00;97.70
13589;DHT22;6865;52.552;13.434;2023-05-02T04:15:56;11.00;97.70
13589;DHT22;6865;52.552;13.434;2023-05-02T04:18:23;11.10;97.80
13589;DHT22;6865;52.552;13.434;2023-05-02T04:20:49;11.00;98.00
13589;DHT22;6865;52.552;13.434;2023-05-02T04:23:16;11.00;98.10
13589;DHT22;6865;52.552;13.434;2023-05-02T04:25:53;11.00;98.50
13589;DHT22;6865;52.552;13.434;2023-05-02T04:28:20;10.90;98.90
13589;DHT22;6865;52.552;13.434;2023-05-02T04:30:48;10.90;99.40
13589;DHT22;6865;52.552;13.434;2023-05-02T04:33:18;10.90;99.60
13589;DHT22;6865;52.552;13.434;2023-05-02T04:35:44;10.90;99.90
13589;DHT22;6865;52.552;13.434;2023-05-02T04:38:13;11.00;99.90
13589;DHT22;6865;52.552;13.434;2023-05-02T04:40:40;11.00;99.90
13589;DHT22;6865;52.552;13.434;2023-05-02T04:43:06;11.10;99.90
13589;DHT22;6865;52.552;13.434;2023-05-02T04:45:36;11.20;99.90
13589;DHT22;6865;52.552;13.434;2023-05-02T04:48:03;11.40;99.70
13589;DHT22;6865;52.552;13.434;2023-05-02T04:50:30;11.30;99.40
13589;DHT22;6865;52.552;13.434;2023-05-02T04:52:57;11.40;99.60
13589;DHT22;6865;52.552;13.434;2023-05-02T04:55:24;11.40;99.50
13589;DHT22;6865;52.552;13.434;2023-05-02T04:57:51;11.40;99.70
13589;DHT22;6865;52.552;13.434;2023-05-02T05:00:18;11.60;99.40
13589;DHT22;6865;52.552;13.434;2023-05-02T05:02:45;11.70;99.30
13589;DHT22;6865;52.552;13.434;2023-05-02T05:05:11;11.60;99.30
13589;DHT22;6865;52.552;13.434;2023-05-02T05:07:38;11.80;99.10
13589;DHT22;6865;52.552;13.434;2023-05-02T05:10:05;11.90;98.90
13589;DHT22;6865;52.552;13.434;2023-05-02T05:12:33;12.00;98.60
13589;DHT22;6865;52.552;13.434;2023-05-02T05:15:00;12.10;98.30
13589;DHT22;6865;52.552;13.434;2023-05-02T05:17:26;12.10;98.30
13589;DHT22;6865;52.552;13.434;2023-05-02T05:19:53;12.00;98.10
13589;DHT22;6865;52.552;13.434;2023-05-02T05:22:20;12.40;98.20
13589;DHT22;6865;52.552;13.434;2023-05-02T05:24:53;12.40;97.80
13589;DHT22;6865;52.552;13.434;2023-05-02T05:27:20;12.30;97.70
13589;DHT22;6865;52.552;13.434;2023-05-02T05:29:47;12.30;97.80
13589;DHT22;6865;52.552;13.434;2023-05-02T05:32:14;12.50;97.90
13589;DHT22;6865;52.552;13.434;2023-05-02T05:34:41;12.30;97.50
13589;DHT22;6865;52.552;13.434;2023-05-02T05:37:08;12.30;98.00
13589;DHT22;6865;52.552;13.434;2023-05-02T05:39:34;12.40;97.90
13589;DHT22;6865;52.552;13.434;2023-05-02T05:42:01;12.60;97.80
13589;DHT22;6865;52.552;13.434;2023-05-02T05:44:28;12.70;97.50
13589;DHT22;6865;52.552;13.434;2023-05-02T05:46:55;12.90;97.30
13589;DHT22;6865;52.552;13.434;2023-05-02T05:49:22;13.10;96.30
13589;DHT22;6865;52.552;13.434;2023-05-02T05:51:49;13.70;95.70
13589;DHT22;6865;52.552;13.434;2023-05-02T05:54:16;13.80;95.80
13589;DHT22;6865;52.552;13.434;2023-05-02T05:56:44;14.20;95.90
13589;DHT22;6865;52.552;13.434;2023-05-02T05:59:10;14.60;95.30
13589;DHT22;6865;52.552;13.434;2023-05-02T06:01:37;14.90;94.30
13589;DHT22;6865;52.552;13.434;2023-05-02T06:04:04;15.20;93.90
13589;DHT22;6865;52.552;13.434;2023-05-02T06:06:32;15.30;93.50
13589;DHT22;6865;52.552;13.434;2023-05-02T06:09:00;15.40;93.00
13589;DHT22;6865;52.552;13.434;2023-05-02T06:11:27;15.40;93.60
13589;DHT22;6865;52.552;13.434;2023-05-02T06:13:53;15.50;93.20
13589;DHT22;6865;52.552;13.434;2023-05-02T06:16:20;15.20;93.70
13589;DHT22;6865;52.552;13.434;2023-05-02T06:18:49;15.10;93.80
13589;DHT22;6865;52.552;13.434;2023-05-02T06:21:16;15.20;94.10
13589;DHT22;6865;52.552;13.434;2023-05-02T06:23:43;14.80;94.30
13589;DHT22;6865;52.552;13.434;2023-05-02T06:26:11;15.30;94.40
13589;DHT22;6865;52.552;13.434;2023-05-02T06:28:37;15.40;94.20
13589;DHT22;6865;52.552;13.434;2023-05-02T06:31:05;15.90;93.80
13589;DHT22;6865;52.552;13.434;2023-05-02T06:33:32;16.00;93.60
13589;DHT22;6865;52.552;13.434;2023-05-02T06:35:59;16.00;93.60
13589;DHT22;6865;52.552;13.434;2023-05-02T06:38:27;16.10;93.60
13589;DHT22;6865;52.552;13.434;2023-05-02T06:40:54;16.10;93.60
13589;DHT22;6865;52.552;13.434;2023-05-02T06:43:21;16.00;93.50
13589;DHT22;6865;52.552;13.434;2023-05-02T06:45:47;15.90;93.50
13589;DHT22;6865;52.552;13.434;2023-05-02T06:48:14;15.50;94.50
13589;DHT22;6865;52.552;13.434;2023-05-02T06:50:41;15.60;94.30
13589;DHT22;6865;52.552;13.434;2023-05-02T06:53:08;15.80;93.90
13589;DHT22;6865;52.552;13.434;2023-05-02T06:55:34;15.70;93.90
13589;DHT22;6865;52.552;13.434;2023-05-02T06:58:01;15.70;94.10
13589;DHT22;6865;52.552;13.434;2023-05-02T07:00:27;15.20;94.40
13589;DHT22;6865;52.552;13.434;2023-05-02T07:02:54;15.00;94.90
13589;DHT22;6865;52.552;13.434;2023-05-02T07:05:21;15.10;95.10
13589;DHT22;6865;52.552;13.434;2023-05-02T07:07:49;15.10;95.20
13589;DHT22;6865;52.552;13.434;2023-05-02T07:10:15;15.20;95.20
13589;DHT22;6865;52.552;13.434;2023-05-02T07:12:42;15.20;95.20
13589;DHT22;6865;52.552;13.434;2023-05-02T07:15:09;15.40;95.30
13589;DHT22;6865;52.552;13.434;2023-05-02T07:17:35;15.50;95.00
13589;DHT22;6865;52.552;13.434;2023-05-02T07:20:02;15.60;94.80
13589;DHT22;6865;52.552;13.434;2023-05-02T07:22:30;15.60;95.00
13589;DHT22;6865;52.552;13.434;2023-05-02T07:24:59;15.50;95.30
13589;DHT22;6865;52.552;13.434;2023-05-02T07:27:26;15.60;95.40
13589;DHT22;6865;52.552;13.434;2023-05-02T07:29:53;15.80;95.10
13589;DHT22;6865;52.552;13.434;2023-05-02T07:32:20;16.30;94.40
13589;DHT22;6865;52.552;13.434;2023-05-02T07:34:53;16.70;93.70
13589;DHT22;6865;52.552;13.434;2023-05-02T07:37:21;16.80;93.40
13589;DHT22;6865;52.552;13.434;2023-05-02T07:39:48;17.00;93.20
13589;DHT22;6865;52.552;13.434;2023-05-02T07:42:15;16.70;93.40
13589;DHT22;6865;52.552;13.434;2023-05-02T07:44:42;16.80;93.70
13589;DHT22;6865;52.552;13.434;2023-05-02T07:47:08;16.70;93.70
13589;DHT22;6865;52.552;13.434;2023-05-02T07:49:35;16.40;93.90
13589;DHT22;6865;52.552;13.434;2023-05-02T07:52:03;16.40;94.10
13589;DHT22;6865;52.552;13.434;2023-05-02T07:54:29;16.20;94.60
13589;DHT22;6865;52.552;13.434;2023-05-02T07:56:56;16.20;94.60
13589;DHT22;6865;52.552;13.434;2023-05-02T07:59:28;16.00;94.90
13589;DHT22;6865;52.552;13.434;2023-05-02T08:01:55;15.80;95.30
13589;DHT22;6865;52.552;13.434;2023-05-02T08:04:21;15.50;95.80
13589;DHT22;6865;52.552;13.434;2023-05-02T08:06:48;15.50;95.90
13589;DHT22;6865;52.552;13.434;2023-05-02T08:09:15;15.40;96.00
13589;DHT22;6865;52.552;13.434;2023-05-02T08:11:42;15.30;96.20
13589;DHT22;6865;52.552;13.434;2023-05-02T08:14:09;15.20;96.40
13589;DHT22;6865;52.552;13.434;2023-05-02T08:16:36;15.30;96.40
13589;DHT22;6865;52.552;13.434;2023-05-02T08:19:02;15.50;96.20
13589;DHT22;6865;52.552;13.434;2023-05-02T08:21:29;15.70;95.80
13589;DHT22;6865;52.552;13.434;2023-05-02T08:23:58;15.50;95.90
13589;DHT22;6865;52.552;13.434;2023-05-02T08:26:24;15.50;95.70
13589;DHT22;6865;52.552;13.434;2023-05-02T08:28:51;15.50;95.70
13589;DHT22;6865;52.552;13.434;2023-05-02T08:31:18;15.40;96.00
13589;DHT22;6865;52.552;13.434;2023-05-02T08:33:45;15.20;96.10
13589;DHT22;6865;52.552;13.434;2023-05-02T08:36:13;15.00;96.50
13589;DHT22;6865;52.552;13.434;2023-05-02T08:38:41;15.10;96.70
13589;DHT22;6865;52.552;13.434;2023-05-02T08:41:12;15.10;96.80
13589;DHT22;6865;52.552;13.434;2023-05-02T08:43:39;15.00;97.20
13589;DHT22;6865;52.552;13.434;2023-05-02T08:46:06;14.80;97.50
13589;DHT22;6865;52.552;13.434;2023-05-02T08:48:39;14.70;97.80
13589;DHT22;6865;52.552;13.434;2023-05-02T08:51:11;14.60;98.10
13589;DHT22;6865;52.552;13.434;2023-05-02T08:53:38;14.30;98.60
13589;DHT22;6865;52.552;13.434;2023-05-02T08:56:07;14.40;98.70
13589;DHT22;6865;52.552;13.434;2023-05-02T08:58:35;14.40;98.70
13589;DHT22;6865;52.552;13.434;2023-05-02T09:01:07;14.30;99.20
13589;DHT22;6865;52.552;13.434;2023-05-02T09:03:35;14.50;99.10
13589;DHT22;6865;52.552;13.434;2023-05-02T09:06:07;14.40;99.00
13589;DHT22;6865;52.552;13.434;2023-05-02T09:08:35;14.40;99.40
13589;DHT22;6865;52.552;13.434;2023-05-02T09:11:02;14.50;99.40
13589;DHT22;6865;52.552;13.434;2023-05-02T09:13:49;14.70;99.30
13589;DHT22;6865;52.552;13.434;2023-05-02T09:16:20;15.00;99.00
13589;DHT22;6865;52.552;13.434;2023-05-02T09:18:52;15.30;98.60
13589;DHT22;6865;52.552;13.434;2023-05-02T09:21:21;15.40;98.40
13589;DHT22;6865;52.552;13.434;2023-05-02T09:23:53;15.50;98.30
13589;DHT22;6865;52.552;13.434;2023-05-02T09:26:24;15.20;98.50
13589;DHT22;6865;52.552;13.434;2023-05-02T09:29:09;14.80;98.80
13589;DHT22;6865;52.552;13.434;2023-05-02T09:31:36;14.80;99.60
13589;DHT22;6865;52.552;13.434;2023-05-02T09:34:14;14.80;99.60
13589;DHT22;6865;52.552;13.434;2023-05-02T09:36:45;14.80;99.80
13589;DHT22;6865;52.552;13.434;2023-05-02T09:39:14;14.90;99.90
13589;DHT22;6865;52.552;13.434;2023-05-02T09:41:45;14.80;99.80
13589;DHT22;6865;52.552;13.434;2023-05-02T09:44:14;14.90;99.80
13589;DHT22;6865;52.552;13.434;2023-05-02T09:46:45;15.00;99.50
13589;DHT22;6865;52.552;13.434;2023-05-02T09:49:12;15.00;99.60
13589;DHT22;6865;52.552;13.434;2023-05-02T09:51:40;15.10;99.70
13589;DHT22;6865;52.552;13.434;2023-05-02T09:54:09;15.20;99.60
13589;DHT22;6865;52.552;13.434;2023-05-02T09:56:56;15.40;99.10
13589;DHT22;6865;52.552;13.434;2023-05-02T09:59:23;15.50;99.20
13589;DHT22;6865;52.552;13.434;2023-05-02T10:02:01;15.60;99.00
13589;DHT22;6865;52.552;13.434;2023-05-02T10:04:30;15.60;99.20
13589;DHT22;6865;52.552;13.434;2023-05-02T10:06:58;15.60;98.60
13589;DHT22;6865;52.552;13.434;2023-05-02T10:09:26;15.60;98.30
13589;DHT22;6865;52.552;13.434;2023-05-02T10:11:54;15.50;98.30
13589;DHT22;6865;52.552;13.434;2023-05-02T10:14:23;15.40;98.40
13589;DHT22;6865;52.552;13.434;2023-05-02T10:17:05;15.30;98.30
13589;DHT22;6865;52.552;13.434;2023-05-02T10:20:04;15.10;99.00
13589;DHT22;6865;52.552;13.434;2023-05-02T10:22:33;15.10;99.40
13589;DHT22;6865;52.552;13.434;2023-05-02T10:25:01;15.30;99.10
13589;DHT22;6865;52.552;13.434;2023-05-02T10:27:30;15.40;98.60
13589;DHT22;6865;52.552;13.434;2023-05-02T10:29:58;15.30;98.30
13589;DHT22;6865;52.552;13.434;2023-05-02T10:32:28;15.30;98.70
13589;DHT22;6865;52.552;13.434;2023-05-02T10:35:02;15.20;98.90
13589;DHT22;6865;52.552;13.434;2023-05-02T10:37:31;15.20;99.30
13589;DHT22;6865;52.552;13.434;2023-05-02T10:39:59;14.80;99.90
13589;DHT22;6865;52.552;13.434;2023-05-02T10:42:27;15.00;99.50
13589;DHT22;6865;52.552;13.434;2023-05-02T10:44:54;14.90;99.50
13589;DHT22;6865;52.552;13.434;2023-05-02T10:47:21;14.80;99.80
13589;DHT22;6865;52.552;13.434;2023-05-02T10:49:54;14.70;99.60
13589;DHT22;6865;52.552;13.434;2023-05-02T10:52:29;14.70;99.70
13589;DHT22;6865;52.552;13.434;2023-05-02T10:55:15;14.50;99.90
13589;DHT22;6865;52.552;13.434;2023-05-02T11:00:26;14.30;99.90
13589;DHT22;6865;52.552;13.434;2023-05-02T11:02:53;14.10;99.90
13589;DHT22;6865;52.552;13.434;2023-05-02T11:05:21;13.60;99.90
13589;DHT22;6865;52.552;13.434;2023-05-02T11:07:48;13.50;99.90
13589;DHT22;6865;52.552;13.434;2023-05-02T11:12:49;13.40;99.90
13589;DHT22;6865;52.552;13.434;2023-05-02T11:18:02;13.20;99.90
13589;DHT22;6865;52.552;13.434;2023-05-02T11:20:29;13.00;99.90
13589;DHT22;6865;52.552;13.434;2023-05-02T11:25:51;13.00;99.90
13589;DHT22;6865;52.552;13.434;2023-05-02T11:31:04;13.10;99.90
13589;DHT22;6865;52.552;13.434;2023-05-02T11:33:31;13.20;99.90
13589;DHT22;6865;52.552;13.434;2023-05-02T11:35:58;13.60;98.80
13589;DHT22;6865;52.552;13.434;2023-05-02T11:38:27;13.70;97.70
13589;DHT22;6865;52.552;13.434;2023-05-02T11:41:00;13.80;97.50
13589;DHT22;6865;52.552;13.434;2023-05-02T11:43:28;14.00;96.70
13589;DHT22;6865;52.552;13.434;2023-05-02T11:45:58;14.10;96.00
13589;DHT22;6865;52.552;13.434;2023-05-02T11:48:26;14.10;95.90
13589;DHT22;6865;52.552;13.434;2023-05-02T11:50:55;14.30;95.20
13589;DHT22;6865;52.552;13.434;2023-05-02T11:53:24;14.40;94.90
13589;DHT22;6865;52.552;13.434;2023-05-02T11:55:53;14.40;94.80
13589;DHT22;6865;52.552;13.434;2023-05-02T11:58:21;14.30;94.70
13589;DHT22;6865;52.552;13.434;2023-05-02T12:00:49;13.90;94.80
13589;DHT22;6865;52.552;13.434;2023-05-02T12:03:31;13.60;95.30
13589;DHT22;6865;52.552;13.434;2023-05-02T12:06:12;13.20;95.70
13589;DHT22;6865;52.552;13.434;2023-05-02T12:08:41;13.60;95.60
13589;DHT22;6865;52.552;13.434;2023-05-02T12:11:08;13.80;95.30
13589;DHT22;6865;52.552;13.434;2023-05-02T12:13:43;13.90;95.50
13589;DHT22;6865;52.552;13.434;2023-05-02T12:16:11;13.80;94.70
13589;DHT22;6865;52.552;13.434;2023-05-02T12:18:38;13.70;95.00
13589;DHT22;6865;52.552;13.434;2023-05-02T12:21:05;13.80;94.80
13589;DHT22;6865;52.552;13.434;2023-05-02T12:23:32;13.80;94.90
13589;DHT22;6865;52.552;13.434;2023-05-02T12:26:36;13.80;94.90
13589;DHT22;6865;52.552;13.434;2023-05-02T12:29:03;13.40;94.90
13589;DHT22;6865;52.552;13.434;2023-05-02T12:31:32;13.60;95.10
13589;DHT22;6865;52.552;13.434;2023-05-02T12:33:58;13.60;94.90
13589;DHT22;6865;52.552;13.434;2023-05-02T12:36:27;13.90;94.60
13589;DHT22;6865;52.552;13.434;2023-05-02T12:38:56;12.50;93.60
13589;DHT22;6865;52.552;13.434;2023-05-02T12:41:34;14.20;93.90
13589;DHT22;6865;52.552;13.434;2023-05-02T12:44:01;14.20;93.80
13589;DHT22;6865;52.552;13.434;2023-05-02T12:46:28;14.30;93.50
13589;DHT22;6865;52.552;13.434;2023-05-02T12:49:07;14.10;93.40
13589;DHT22;6865;52.552;13.434;2023-05-02T12:51:35;14.20;93.40
13589;DHT22;6865;52.552;13.434;2023-05-02T12:54:03;14.20;93.50
13589;DHT22;6865;52.552;13.434;2023-05-02T12:56:38;14.30;93.20
13589;DHT22;6865;52.552;13.434;2023-05-02T12:59:04;14.50;93.00
13589;DHT22;6865;52.552;13.434;2023-05-02T13:01:32;14.30;92.50
13589;DHT22;6865;52.552;13.434;2023-05-02T13:03:59;14.30;92.50
13589;DHT22;6865;52.552;13.434;2023-05-02T13:06:26;14.10;92.40
13589;DHT22;6865;52.552;13.434;2023-05-02T13:08:53;14.10;92.70
13589;DHT22;6865;52.552;13.434;2023-05-02T13:11:19;14.10;92.50
13589;DHT22;6865;52.552;13.434;2023-05-02T13:13:46;13.90;92.80
13589;DHT22;6865;52.552;13.434;2023-05-02T13:16:13;14.10;92.70
13589;DHT22;6865;52.552;13.434;2023-05-02T13:18:39;14.20;92.30
13589;DHT22;6865;52.552;13.434;2023-05-02T13:21:06;13.90;92.30
13589;DHT22;6865;52.552;13.434;2023-05-02T13:23:33;13.80;92.50
13589;DHT22;6865;52.552;13.434;2023-05-02T13:26:00;14.00;92.30
13589;DHT22;6865;52.552;13.434;2023-05-02T13:28:26;14.10;92.10
13589;DHT22;6865;52.552;13.434;2023-05-02T13:30:55;14.10;91.80
13589;DHT22;6865;52.552;13.434;2023-05-02T13:33:22;13.50;92.20
13589;DHT22;6865;52.552;13.434;2023-05-02T13:35:49;13.50;91.90
13589;DHT22;6865;52.552;13.434;2023-05-02T13:38:15;13.50;91.80
13589;DHT22;6865;52.552;13.434;2023-05-02T13:40:42;13.30;91.90
13589;DHT22;6865;52.552;13.434;2023-05-02T13:43:08;13.10;92.20
13589;DHT22;6865;52.552;13.434;2023-05-02T13:45:35;13.30;92.30
13589;DHT22;6865;52.552;13.434;2023-05-02T13:48:02;13.00;91.80
13589;DHT22;6865;52.552;13.434;2023-05-02T13:50:29;13.40;91.70
13589;DHT22;6865;52.552;13.434;2023-05-02T13:52:55;13.20;91.70
13589;DHT22;6865;52.552;13.434;2023-05-02T13:55:22;13.50;91.60
13589;DHT22;6865;52.552;13.434;2023-05-02T13:57:49;13.20;91.50
13589;DHT22;6865;52.552;13.434;2023-05-02T14:00:16;13.60;91.10
13589;DHT22;6865;52.552;13.434;2023-05-02T14:02:43;13.80;90.40
13589;DHT22;6865;52.552;13.434;2023-05-02T14:05:12;13.40;90.70
13589;DHT22;6865;52.552;13.434;2023-05-02T14:07:39;13.30;90.80
13589;DHT22;6865;52.552;13.434;2023-05-02T14:10:06;13.20;90.90
13589;DHT22;6865;52.552;13.434;2023-05-02T14:12:33;13.50;90.70
13589;DHT22;6865;52.552;13.434;2023-05-02T14:15:00;13.10;90.90
13589;DHT22;6865;52.552;13.434;2023-05-02T14:17:28;13.00;91.20
13589;DHT22;6865;52.552;13.434;2023-05-02T14:19:57;12.60;91.30
13589;DHT22;6865;52.552;13.434;2023-05-02T14:22:23;13.00;91.30
13589;DHT22;6865;52.552;13.434;2023-05-02T14:24:50;13.20;90.70
13589;DHT22;6865;52.552;13.434;2023-05-02T14:27:17;13.00;90.80
13589;DHT22;6865;52.552;13.434;2023-05-02T14:29:47;12.80;91.30
13589;DHT22;6865;52.552;13.434;2023-05-02T14:32:14;12.40;91.30
13589;DHT22;6865;52.552;13.434;2023-05-02T14:34:41;12.40;91.40
13589;DHT22;6865;52.552;13.434;2023-05-02T14:37:08;12.40;91.70
13589;DHT22;6865;52.552;13.434;2023-05-02T14:39:35;12.50;91.60
13589;DHT22;6865;52.552;13.434;2023-05-02T14:42:02;12.70;91.30
13589;DHT22;6865;52.552;13.434;2023-05-02T14:44:30;12.70;91.00
13589;DHT22;6865;52.552;13.434;2023-05-02T14:46:57;12.30;91.10
13589;DHT22;6865;52.552;13.434;2023-05-02T14:49:23;12.20;91.40
13589;DHT22;6865;52.552;13.434;2023-05-02T14:51:51;12.30;91.30
13589;DHT22;6865;52.552;13.434;2023-05-02T14:54:18;12.30;91.10
13589;DHT22;6865;52.552;13.434;2023-05-02T14:56:45;12.20;91.20
13589;DHT22;6865;52.552;13.434;2023-05-02T14:59:14;12.10;91.40
13589;DHT22;6865;52.552;13.434;2023-05-02T15:01:40;11.90;91.30
13589;DHT22;6865;52.552;13.434;2023-05-02T15:04:07;12.10;91.70
13589;DHT22;6865;52.552;13.434;2023-05-02T15:06:34;12.10;91.50
13589;DHT22;6865;52.552;13.434;2023-05-02T15:09:02;12.20;91.30
13589;DHT22;6865;52.552;13.434;2023-05-02T15:11:30;12.20;91.10
13589;DHT22;6865;52.552;13.434;2023-05-02T15:13:57;12.30;91.10
13589;DHT22;6865;52.552;13.434;2023-05-02T15:16:25;12.20;91.20
13589;DHT22;6865;52.552;13.434;2023-05-02T15:18:55;12.20;91.30
13589;DHT22;6865;52.552;13.434;2023-05-02T15:21:22;12.10;91.50
13589;DHT22;6865;52.552;13.434;2023-05-02T15:23:48;12.00;91.20
13589;DHT22;6865;52.552;13.434;2023-05-02T15:26:15;12.00;90.80
13589;DHT22;6865;52.552;13.434;2023-05-02T15:28:42;11.90;90.90
13589;DHT22;6865;52.552;13.434;2023-05-02T15:31:09;12.00;90.70
13589;DHT22;6865;52.552;13.434;2023-05-02T15:33:36;12.00;90.40
13589;DHT22;6865;52.552;13.434;2023-05-02T15:36:03;11.90;90.40
13589;DHT22;6865;52.552;13.434;2023-05-02T15:38:30;12.00;90.20
13589;DHT22;6865;52.552;13.434;2023-05-02T15:40:57;12.10;89.40
13589;DHT22;6865;52.552;13.434;2023-05-02T15:43:25;12.00;89.70
13589;DHT22;6865;52.552;13.434;2023-05-02T15:45:54;12.10;89.40
13589;DHT22;6865;52.552;13.434;2023-05-02T15:48:23;12.10;88.80
13589;DHT22;6865;52.552;13.434;2023-05-02T15:50:52;12.20;88.20
13589;DHT22;6865;52.552;13.434;2023-05-02T15:53:22;12.20;88.10
13589;DHT22;6865;52.552;13.434;2023-05-02T15:55:50;12.10;88.40
13589;DHT22;6865;52.552;13.434;2023-05-02T15:58:18;12.10;89.00
13589;DHT22;6865;52.552;13.434;2023-05-02T16:00:45;12.20;88.70